Time;durP1;ratioP1;P1;durP2;ratioP2;P2;SDS_P1;SDS_P2;PMS_P1;PMS_P2;Temp;Humidity;BMP_temperature;BMP_pressure;BME280_temperature;BME280_humidity;BME280_pressure;Samples;Min_cycle;Max_cycle;Signal;HPM_P1;HPM_P2
2021/05/01 00:01:52;;;;;;;35.35;28.00;;;8.10;99.90;;;;;;5018699;28;20041;-78
2021/05/01 00:04:17;;;;;;;36.28;29.20;;;8.10;99.90;;;;;;5041196;28;20071;-79
2021/05/01 00:06:43;;;;;;;40.05;29.75;;;8.10;99.90;;;;;;5048386;28;20076;-78
2021/05/01 00:09:09;;;;;;;41.70;31.17;;;8.10;99.90;;;;;;5030525;28;20410;-79
2021/05/01 00:11:35;;;;;;;38.03;30.15;;;8.10;99.90;;;;;;5022659;28;20103;-79
2021/05/01 00:14:01;;;;;;;40.13;30.77;;;8.10;99.90;;;;;;5019898;28;20033;-81
2021/05/01 00:16:28;;;;;;;37.40;29.20;;;8.10;99.90;;;;;;5021321;28;20473;-78
2021/05/01 00:18:55;;;;;;;35.45;29.25;;;8.10;99.90;;;;;;5030151;28;20412;-79
2021/05/01 00:21:21;;;;;;;40.17;29.83;;;8.10;99.90;;;;;;5043521;28;20034;-79
2021/05/01 00:23:47;;;;;;;39.10;29.77;;;8.10;99.90;;;;;;5017914;28;20036;-79
2021/05/01 00:26:13;;;;;;;37.95;30.17;;;8.10;99.90;;;;;;5032514;28;20033;-80
2021/05/01 00:28:40;;;;;;;38.05;30.23;;;8.20;99.90;;;;;;5020288;28;20077;-78
2021/05/01 00:31:18;;;;;;;39.03;30.23;;;8.10;99.90;;;;;;5026230;28;20049;-81
2021/05/01 00:33:44;;;;;;;44.92;31.77;;;8.20;99.90;;;;;;5038210;28;20029;-79
2021/05/01 00:36:10;;;;;;;42.55;29.63;;;8.10;99.90;;;;;;5047152;28;20033;-79
2021/05/01 00:38:36;;;;;;;37.30;29.33;;;8.10;99.90;;;;;;5026417;28;20045;-80
2021/05/01 00:41:02;;;;;;;39.92;30.55;;;8.10;99.90;;;;;;5016806;28;20056;-79
2021/05/01 00:43:28;;;;;;;41.95;30.25;;;8.10;99.90;;;;;;5037352;28;20037;-80
2021/05/01 00:45:55;;;;;;;34.85;27.58;;;8.10;99.90;;;;;;5033570;28;20037;-80
2021/05/01 00:48:21;;;;;;;36.17;28.40;;;8.10;99.90;;;;;;5024634;28;20053;-78
2021/05/01 00:50:47;;;;;;;35.00;27.25;;;8.10;99.90;;;;;;5017708;28;20099;-81
2021/05/01 00:53:13;;;;;;;29.23;24.02;;;8.00;99.90;;;;;;5028554;28;20076;-81
2021/05/01 00:55:41;;;;;;;28.08;24.40;;;8.00;99.90;;;;;;5022178;28;20084;-78
2021/05/01 00:58:08;;;;;;;31.73;25.58;;;7.90;99.90;;;;;;5008961;28;20060;-81
2021/05/01 01:01:03;;;;;;;31.63;25.23;;;8.00;99.90;;;;;;5010145;28;20117;-80
2021/05/01 01:03:31;;;;;;;29.25;23.13;;;7.90;99.90;;;;;;5011375;28;20061;-79
2021/05/01 01:05:57;;;;;;;28.48;23.33;;;7.90;99.90;;;;;;5026656;28;20025;-81
2021/05/01 01:08:23;;;;;;;29.88;24.13;;;7.90;99.90;;;;;;5009260;28;20481;-81
2021/05/01 01:10:49;;;;;;;26.65;23.45;;;8.00;99.90;;;;;;5031576;28;20033;-79
2021/05/01 01:13:15;;;;;;;30.00;23.95;;;7.90;99.90;;;;;;4998224;28;20055;-78
2021/05/01 01:15:41;;;;;;;29.33;24.40;;;7.90;99.90;;;;;;5012669;28;20149;-79
2021/05/01 01:18:07;;;;;;;31.02;26.13;;;7.90;99.90;;;;;;5029211;28;20092;-80
2021/05/01 01:20:33;;;;;;;31.42;24.85;;;7.90;99.90;;;;;;4997220;28;20045;-80
2021/05/01 01:22:59;;;;;;;32.42;25.15;;;7.90;99.90;;;;;;5011617;28;20040;-80
2021/05/01 01:25:25;;;;;;;29.55;24.73;;;7.90;99.90;;;;;;5025970;28;20070;-80
2021/05/01 01:27:50;;;;;;;29.73;24.25;;;7.90;99.90;;;;;;5031120;28;20033;-80
2021/05/01 01:30:23;;;;;;;29.02;24.25;;;7.90;99.90;;;;;;5005732;28;20046;-81
2021/05/01 01:32:49;;;;;;;28.50;24.17;;;7.90;99.90;;;;;;5016025;28;20050;-80
2021/05/01 01:35:14;;;;;;;28.58;23.98;;;8.00;99.90;;;;;;5016496;28;20033;-79
2021/05/01 01:37:43;;;;;;;29.33;24.92;;;8.00;99.90;;;;;;5001081;28;20040;-79
2021/05/01 01:40:11;;;;;;;32.90;24.90;;;8.00;99.90;;;;;;5030082;28;20532;-79
2021/05/01 01:42:37;;;;;;;33.60;25.75;;;7.90;99.90;;;;;;5001098;28;20029;-79
2021/05/01 01:45:04;;;;;;;31.88;26.13;;;8.00;99.90;;;;;;5009839;28;20025;-81
2021/05/01 01:47:49;;;;;;;29.73;25.70;;;7.90;99.90;;;;;;5010936;28;20128;-80
2021/05/01 01:50:18;;;;;;;34.33;24.80;;;8.00;99.90;;;;;;5030738;28;20052;-80
2021/05/01 01:52:44;;;;;;;31.77;25.98;;;7.90;99.90;;;;;;5033371;28;20049;-80
2021/05/01 01:55:13;;;;;;;27.85;24.23;;;7.90;99.90;;;;;;5004447;28;20055;-79
2021/05/01 01:57:40;;;;;;;31.42;25.33;;;7.90;99.90;;;;;;5022862;28;20044;-79
2021/05/01 02:00:10;;;;;;;31.02;25.75;;;8.00;99.90;;;;;;5016873;28;20037;-80
2021/05/01 02:02:36;;;;;;;34.78;28.73;;;7.90;99.90;;;;;;5027788;28;20093;-79
2021/05/01 02:05:04;;;;;;;32.67;26.33;;;8.00;99.90;;;;;;5004413;28;20443;-80
2021/05/01 02:07:29;;;;;;;33.83;27.38;;;8.00;99.90;;;;;;5027937;28;20493;-81
2021/05/01 02:09:56;;;;;;;35.47;25.80;;;7.90;99.90;;;;;;5032784;28;20051;-79
2021/05/01 02:12:22;;;;;;;33.67;26.85;;;7.90;99.90;;;;;;5030960;28;20045;-80
2021/05/01 02:14:48;;;;;;;30.60;25.73;;;8.00;99.90;;;;;;5021300;28;20057;-81
2021/05/01 02:17:14;;;;;;;34.45;27.10;;;7.90;99.90;;;;;;4999800;28;20076;-79
2021/05/01 02:19:40;;;;;;;35.38;28.10;;;7.90;99.90;;;;;;5028803;28;20044;-80
2021/05/01 02:22:06;;;;;;;35.53;27.75;;;8.00;99.90;;;;;;5030472;28;20029;-81
2021/05/01 02:24:32;;;;;;;31.98;26.25;;;7.90;99.90;;;;;;4997759;28;20053;-81
2021/05/01 02:26:58;;;;;;;34.42;27.77;;;7.90;99.90;;;;;;5014649;28;20045;-80
2021/05/01 02:29:24;;;;;;;35.35;28.48;;;7.80;99.90;;;;;;5007021;28;20450;-81
2021/05/01 02:31:50;;;;;;;38.88;29.95;;;7.80;99.90;;;;;;5025402;28;20087;-79
2021/05/01 02:34:15;;;;;;;37.08;29.40;;;7.80;99.90;;;;;;5019062;28;20133;-79
2021/05/01 02:36:41;;;;;;;38.70;30.33;;;7.80;99.90;;;;;;5024568;28;20177;-80
2021/05/01 02:39:07;;;;;;;34.67;29.42;;;7.80;99.90;;;;;;5000263;28;20489;-80
2021/05/01 02:41:34;;;;;;;41.33;30.98;;;7.80;99.90;;;;;;5016261;28;20091;-79
2021/05/01 02:44:00;;;;;;;43.30;31.70;;;7.80;99.90;;;;;;5025040;28;20389;-79
2021/05/01 02:46:26;;;;;;;44.60;32.25;;;7.80;99.90;;;;;;5020124;28;20485;-80
2021/05/01 02:48:52;;;;;;;37.80;30.15;;;7.80;99.90;;;;;;5032359;28;20064;-81
2021/05/01 02:51:18;;;;;;;42.10;31.98;;;7.80;99.90;;;;;;5026817;28;20402;-81
2021/05/01 02:53:44;;;;;;;45.95;33.95;;;7.80;99.90;;;;;;5029370;28;20073;-80
2021/05/01 02:56:10;;;;;;;37.58;30.80;;;7.80;99.90;;;;;;5019918;28;20494;-80
2021/05/01 02:58:36;;;;;;;39.45;31.23;;;7.70;99.90;;;;;;5030731;28;20047;-81
2021/05/01 03:01:02;;;;;;;38.30;30.73;;;7.70;99.90;;;;;;5027608;28;20037;-80
2021/05/01 03:03:28;;;;;;;41.15;31.33;;;7.80;99.90;;;;;;5025248;28;20372;-79
2021/05/01 03:05:54;;;;;;;38.17;30.98;;;7.80;99.90;;;;;;5033930;28;20045;-81
2021/05/01 03:08:20;;;;;;;37.60;30.30;;;7.70;99.90;;;;;;5039299;28;20035;-80
2021/05/01 03:10:46;;;;;;;44.10;32.20;;;7.80;99.90;;;;;;5015697;28;20033;-79
2021/05/01 03:13:11;;;;;;;39.75;31.38;;;7.70;99.90;;;;;;5007847;28;20132;-79
2021/05/01 03:15:37;;;;;;;42.67;31.17;;;7.80;99.90;;;;;;5043660;28;20041;-80
2021/05/01 03:18:03;;;;;;;47.78;34.47;;;7.70;99.90;;;;;;5019279;28;20044;-79
2021/05/01 03:20:29;;;;;;;45.70;33.45;;;7.70;99.90;;;;;;5011085;28;20053;-79
2021/05/01 03:22:55;;;;;;;43.53;32.03;;;7.60;99.90;;;;;;5003472;28;20106;-78
2021/05/01 03:25:22;;;;;;;44.28;32.95;;;7.60;99.90;;;;;;5023004;28;20075;-79
2021/05/01 03:27:48;;;;;;;45.83;34.75;;;7.60;99.90;;;;;;5028129;28;20068;-81
2021/05/01 03:30:17;;;;;;;46.35;33.47;;;7.60;99.90;;;;;;5022315;28;20050;-79
2021/05/01 03:32:45;;;;;;;47.95;35.05;;;7.60;99.90;;;;;;5012248;28;20444;-81
2021/05/01 03:35:11;;;;;;;41.28;32.50;;;7.70;99.90;;;;;;5028595;28;20094;-80
2021/05/01 03:37:38;;;;;;;45.78;33.67;;;7.60;99.90;;;;;;5016687;28;20056;-80
2021/05/01 03:40:05;;;;;;;42.72;32.20;;;7.60;99.90;;;;;;5035522;28;20040;-79
2021/05/01 03:42:31;;;;;;;39.63;31.10;;;7.60;99.90;;;;;;5005323;28;20331;-79
2021/05/01 03:44:57;;;;;;;39.70;31.13;;;7.70;99.90;;;;;;5039064;28;20040;-80
2021/05/01 03:47:23;;;;;;;39.63;31.35;;;7.60;99.90;;;;;;5026768;28;20853;-82
2021/05/01 03:49:49;;;;;;;39.78;30.90;;;7.60;99.90;;;;;;5010666;28;20094;-80
2021/05/01 03:52:14;;;;;;;42.33;32.13;;;7.60;99.90;;;;;;5033085;28;20037;-79
2021/05/01 03:54:40;;;;;;;38.78;30.27;;;7.50;99.90;;;;;;5029656;28;20033;-78
2021/05/01 03:57:06;;;;;;;39.97;31.92;;;7.50;99.90;;;;;;5033214;28;20048;-80
2021/05/01 03:59:32;;;;;;;43.00;31.80;;;7.50;99.90;;;;;;5033672;28;20120;-77
2021/05/01 04:01:58;;;;;;;42.25;30.88;;;7.40;99.90;;;;;;5025864;28;20079;-80
2021/05/01 04:04:24;;;;;;;41.10;31.42;;;7.40;99.90;;;;;;5030843;28;20103;-79
2021/05/01 04:06:50;;;;;;;44.33;33.38;;;7.30;99.90;;;;;;5033989;28;20056;-80
2021/05/01 04:09:15;;;;;;;52.05;35.58;;;7.30;99.90;;;;;;5050563;28;20532;-80
2021/05/01 04:11:41;;;;;;;52.65;35.80;;;7.30;99.90;;;;;;5052556;28;20116;-80
2021/05/01 04:14:07;;;;;;;49.47;35.38;;;7.40;99.90;;;;;;5029336;28;20052;-80
2021/05/01 04:16:32;;;;;;;50.35;35.45;;;7.10;99.90;;;;;;5050216;28;20033;-80
2021/05/01 04:18:58;;;;;;;50.03;35.60;;;7.20;99.90;;;;;;5047340;28;20116;-82
2021/05/01 04:21:24;;;;;;;45.28;33.88;;;7.20;99.90;;;;;;5023742;28;20041;-80
2021/05/01 04:23:50;;;;;;;47.35;35.35;;;7.10;99.90;;;;;;5050020;28;20055;-79
2021/05/01 04:26:19;;;;;;;45.97;34.40;;;7.10;99.90;;;;;;5035144;28;20040;-80
2021/05/01 04:28:45;;;;;;;45.15;33.60;;;7.10;99.90;;;;;;5035975;28;20048;-79
2021/05/01 04:31:20;;;;;;;42.80;33.38;;;7.20;99.90;;;;;;5014190;28;20053;-79
2021/05/01 04:34:24;;;;;;;48.95;35.00;;;7.10;99.90;;;;;;5019284;28;20063;-79
2021/05/01 04:36:50;;;;;;;45.67;34.70;;;7.20;99.90;;;;;;5048030;28;20048;-80
2021/05/01 04:39:16;;;;;;;49.13;34.63;;;7.10;99.90;;;;;;5028448;28;20105;-78
2021/05/01 04:41:42;;;;;;;44.60;34.47;;;7.20;99.90;;;;;;5048014;28;20045;-78
2021/05/01 04:44:07;;;;;;;45.05;34.05;;;7.20;99.90;;;;;;5030837;28;20049;-79
2021/05/01 04:46:33;;;;;;;41.33;32.72;;;7.30;99.90;;;;;;5029270;28;20028;-80
2021/05/01 04:48:59;;;;;;;25.33;19.88;;;7.20;99.90;;;;;;5016638;28;20050;-79
2021/05/01 04:51:25;;;;;;;38.53;31.58;;;8.50;99.90;;;;;;5032489;28;20041;-79
2021/05/01 04:53:51;;;;;;;40.45;32.00;;;8.20;99.90;;;;;;5029098;28;20037;-80
2021/05/01 04:56:17;;;;;;;41.10;33.25;;;7.80;99.90;;;;;;5005639;28;20123;-79
2021/05/01 04:58:44;;;;;;;42.97;33.67;;;7.60;99.90;;;;;;5025330;28;20426;-80
2021/05/01 05:01:09;;;;;;;44.63;34.72;;;7.70;99.90;;;;;;5020369;28;20076;-78
2021/05/01 05:03:35;;;;;;;48.53;34.88;;;7.40;99.90;;;;;;5023346;28;20041;-81
2021/05/01 05:06:01;;;;;;;43.33;33.63;;;7.40;99.90;;;;;;5030924;28;20031;-78
2021/05/01 05:08:26;;;;;;;44.53;34.25;;;7.40;99.90;;;;;;5027912;28;20451;-80
2021/05/01 05:10:52;;;;;;;50.97;34.30;;;7.30;99.90;;;;;;5022865;28;20044;-78
2021/05/01 05:13:25;;;;;;;49.88;35.13;;;7.30;99.90;;;;;;5015587;28;20041;-78
2021/05/01 05:15:52;;;;;;;45.45;34.15;;;7.30;99.90;;;;;;5025019;28;20025;-80
2021/05/01 05:18:18;;;;;;;63.72;33.45;;;7.50;99.90;;;;;;5022215;28;20037;-79
2021/05/01 05:20:44;;;;;;;53.58;33.53;;;7.20;99.90;;;;;;5023733;28;20041;-80
2021/05/01 05:23:10;;;;;;;50.45;35.33;;;7.20;99.90;;;;;;5049999;28;20456;-79
2021/05/01 05:25:36;;;;;;;52.88;35.65;;;7.10;99.90;;;;;;5045633;28;20064;-81
2021/05/01 05:28:01;;;;;;;51.75;35.13;;;7.10;99.90;;;;;;5025718;28;20041;-80
2021/05/01 05:30:27;;;;;;;56.33;37.72;;;7.10;99.90;;;;;;5026675;28;20045;-78
2021/05/01 05:32:56;;;;;;;53.88;36.42;;;7.10;99.90;;;;;;5024617;28;20107;-78
2021/05/01 05:35:22;;;;;;;48.72;35.75;;;7.20;99.90;;;;;;5036830;28;20037;-80
2021/05/01 05:37:48;;;;;;;48.08;36.00;;;7.20;99.90;;;;;;5023314;28;20078;-78
2021/05/01 05:40:15;;;;;;;45.80;34.08;;;7.20;99.90;;;;;;5029353;28;20136;-81
2021/05/01 05:42:42;;;;;;;53.25;37.00;;;7.30;99.90;;;;;;5018002;28;20040;-78
2021/05/01 05:45:09;;;;;;;51.67;35.88;;;7.40;99.90;;;;;;4998349;28;20077;-78
2021/05/01 05:47:35;;;;;;;45.80;34.67;;;7.40;99.90;;;;;;5031171;28;20174;-80
2021/05/01 05:50:01;;;;;;;43.85;33.20;;;7.40;99.90;;;;;;5010182;28;20132;-78
2021/05/01 05:52:26;;;;;;;43.35;32.58;;;7.50;99.90;;;;;;5010210;28;20048;-78
2021/05/01 05:54:52;;;;;;;38.20;29.60;;;7.50;99.90;;;;;;5033022;28;20347;-79
2021/05/01 05:57:18;;;;;;;37.08;28.98;;;7.60;99.90;;;;;;5030525;28;20462;-79
2021/05/01 05:59:44;;;;;;;32.10;26.33;;;7.70;99.90;;;;;;5028721;28;20042;-78
2021/05/01 06:02:14;;;;;;;28.88;24.13;;;7.70;99.90;;;;;;5010139;28;20404;-78
2021/05/01 06:05:02;;;;;;;28.10;23.63;;;7.80;99.90;;;;;;5012254;28;20051;-78
2021/05/01 06:07:34;;;;;;;27.25;23.48;;;7.80;99.90;;;;;;5015528;28;20495;-81
2021/05/01 06:10:04;;;;;;;28.00;22.33;;;7.90;99.90;;;;;;4988006;28;20072;-80
2021/05/01 06:12:32;;;;;;;26.73;21.42;;;7.90;99.90;;;;;;5013744;28;20463;-78
2021/05/01 06:15:03;;;;;;;26.23;20.83;;;7.90;99.90;;;;;;5015105;28;20182;-80
2021/05/01 06:17:29;;;;;;;23.55;20.17;;;7.90;99.90;;;;;;5000554;28;20046;-78
2021/05/01 06:19:57;;;;;;;22.88;19.35;;;7.90;99.90;;;;;;5001688;28;20041;-80
2021/05/01 06:22:25;;;;;;;23.10;19.23;;;8.00;99.90;;;;;;5011476;28;20493;-79
2021/05/01 06:24:53;;;;;;;21.27;17.92;;;8.00;99.90;;;;;;5006584;28;20038;-79
2021/05/01 06:27:21;;;;;;;21.38;17.58;;;8.00;99.90;;;;;;4997052;28;20141;-79
2021/05/01 06:29:47;;;;;;;20.60;17.45;;;8.10;99.90;;;;;;5023197;28;20397;-78
2021/05/01 06:32:15;;;;;;;18.70;15.52;;;8.10;99.90;;;;;;5013323;28;20363;-80
2021/05/01 06:34:47;;;;;;;19.73;17.08;;;8.30;99.90;;;;;;5026749;28;20465;-79
2021/05/01 06:37:16;;;;;;;24.70;18.13;;;8.30;99.90;;;;;;5029099;28;20045;-81
2021/05/01 06:39:46;;;;;;;21.10;16.67;;;8.40;99.90;;;;;;5024544;28;20037;-81
2021/05/01 06:42:19;;;;;;;17.70;15.65;;;8.50;99.90;;;;;;5012858;28;20822;-79
2021/05/01 06:45:13;;;;;;;19.23;15.95;;;8.60;99.90;;;;;;5009604;28;20061;-79
2021/05/01 06:47:48;;;;;;;18.30;15.63;;;8.60;99.90;;;;;;5004597;28;20049;-80
2021/05/01 06:50:14;;;;;;;;;;;8.70;99.90;;;;;;5012386;28;20393;-80
2021/05/01 06:52:45;;;;;;;18.17;14.65;;;8.90;99.90;;;;;;5025465;28;19920;-80
2021/05/01 06:55:16;;;;;;;17.33;13.50;;;9.10;99.90;;;;;;5005012;28;20046;-81
2021/05/01 06:57:47;;;;;;;14.65;12.52;;;9.10;99.90;;;;;;5030207;28;20049;-80
2021/05/01 07:00:15;;;;;;;17.95;11.95;;;9.20;99.90;;;;;;5025702;28;20487;-80
2021/05/01 07:02:44;;;;;;;14.75;10.95;;;9.40;99.90;;;;;;5045650;28;20076;-76
2021/05/01 07:05:16;;;;;;;13.32;10.98;;;9.50;99.90;;;;;;5043021;28;20033;-76
2021/05/01 07:07:42;;;;;;;10.85;9.50;;;9.60;99.90;;;;;;5021475;28;20052;-77
2021/05/01 07:10:09;;;;;;;13.70;9.10;;;9.70;99.90;;;;;;5042102;28;20047;-77
2021/05/01 07:12:37;;;;;;;11.38;9.75;;;9.70;99.90;;;;;;5044152;28;20033;-77
2021/05/01 07:15:16;;;;;;;10.23;9.13;;;9.80;99.90;;;;;;5045227;28;20033;-78
2021/05/01 07:17:42;;;;;;;13.25;9.45;;;9.90;99.90;;;;;;5042759;28;20048;-77
2021/05/01 07:20:10;;;;;;;10.60;8.70;;;9.90;99.90;;;;;;5042039;28;20041;-77
2021/05/01 07:22:36;;;;;;;13.57;9.98;;;9.90;99.90;;;;;;5046749;28;20048;-78
2021/05/01 07:25:04;;;;;;;12.38;9.70;;;9.90;99.90;;;;;;5027863;28;20510;-78
2021/05/01 07:28:01;;;;;;;12.10;9.85;;;10.00;99.90;;;;;;5043431;28;20033;-78
2021/05/01 07:30:28;;;;;;;14.85;11.43;;;10.20;99.90;;;;;;5033766;28;20059;-80
2021/05/01 07:33:33;;;;;;;12.55;11.02;;;10.20;99.90;;;;;;5022605;28;20056;-79
2021/05/01 07:36:03;;;;;;;14.80;12.40;;;10.20;99.90;;;;;;5042644;28;20049;-79
2021/05/01 07:38:31;;;;;;;14.18;12.35;;;10.20;99.90;;;;;;5041830;28;20395;-78
2021/05/01 07:40:59;;;;;;;16.98;12.07;;;10.30;99.90;;;;;;5047586;28;20099;-79
2021/05/01 07:43:28;;;;;;;16.58;11.27;;;10.40;99.90;;;;;;5042755;28;20112;-80
2021/05/01 07:45:56;;;;;;;15.25;11.50;;;10.50;99.90;;;;;;5009497;28;20476;-78
2021/05/01 07:48:22;;;;;;;14.20;11.48;;;10.70;99.90;;;;;;5053500;28;20037;-79
2021/05/01 07:50:49;;;;;;;14.00;11.38;;;10.70;99.90;;;;;;5050405;28;20063;-78
2021/05/01 07:53:15;;;;;;;14.13;11.88;;;10.80;99.90;;;;;;5026727;28;20046;-80
2021/05/01 07:55:41;;;;;;;15.32;12.18;;;11.00;99.90;;;;;;5033268;28;20049;-80
2021/05/01 07:58:07;;;;;;;13.88;12.10;;;11.10;99.90;;;;;;5020461;28;20047;-79
2021/05/01 08:00:34;;;;;;;16.52;12.95;;;11.10;99.90;;;;;;5018565;28;20061;-78
2021/05/01 08:03:05;;;;;;;15.32;12.65;;;11.00;99.90;;;;;;5030355;28;20117;-76
2021/05/01 08:05:31;;;;;;;14.05;12.60;;;11.20;99.90;;;;;;5003699;28;20045;-79
2021/05/01 08:07:58;;;;;;;15.27;12.45;;;11.20;99.90;;;;;;5004906;28;20477;-78
2021/05/01 08:10:24;;;;;;;15.15;12.27;;;11.30;99.90;;;;;;5023477;28;20046;-77
2021/05/01 08:12:50;;;;;;;17.63;12.88;;;11.20;99.90;;;;;;5020065;28;20143;-79
2021/05/01 08:15:16;;;;;;;16.38;12.90;;;11.20;99.90;;;;;;5023450;28;20099;-79
2021/05/01 08:17:42;;;;;;;14.95;12.95;;;11.30;99.90;;;;;;5019641;28;20086;-77
2021/05/01 08:20:11;;;;;;;16.05;13.18;;;11.40;99.90;;;;;;5022421;28;20042;-77
2021/05/01 08:22:38;;;;;;;13.68;12.23;;;11.60;99.90;;;;;;5023648;28;20041;-78
2021/05/01 08:25:08;;;;;;;16.85;13.40;;;11.50;99.90;;;;;;5003128;28;20052;-75
2021/05/01 08:27:34;;;;;;;15.57;13.38;;;11.40;99.90;;;;;;5021534;28;20040;-75
2021/05/01 08:30:01;;;;;;;15.73;12.23;;;11.30;99.90;;;;;;5018700;28;20033;-77
2021/05/01 08:32:27;;;;;;;15.15;12.38;;;11.10;99.90;;;;;;5019386;28;20042;-77
2021/05/01 08:34:53;;;;;;;14.73;12.82;;;11.10;99.90;;;;;;5021211;28;20393;-76
2021/05/01 08:37:19;;;;;;;18.35;12.77;;;11.00;99.90;;;;;;5010412;28;20041;-79
2021/05/01 08:39:45;;;;;;;15.68;13.43;;;11.10;99.90;;;;;;5024549;28;20038;-78
2021/05/01 08:42:10;;;;;;;18.48;13.07;;;11.00;99.90;;;;;;5011729;28;20057;-78
2021/05/01 08:44:36;;;;;;;15.82;12.40;;;10.90;99.90;;;;;;5014334;28;20061;-79
2021/05/01 08:47:02;;;;;;;15.18;12.80;;;10.80;99.90;;;;;;4999541;28;20099;-79
2021/05/01 08:49:28;;;;;;;16.45;14.18;;;10.70;99.90;;;;;;5018057;28;20069;-80
2021/05/01 08:51:53;;;;;;;18.05;14.30;;;10.60;99.90;;;;;;5023295;28;20038;-79
2021/05/01 08:54:19;;;;;;;16.15;14.00;;;10.50;99.90;;;;;;5014180;28;20533;-78
2021/05/01 08:56:47;;;;;;;18.48;14.25;;;10.50;99.90;;;;;;5029828;28;20058;-77
2021/05/01 08:59:14;;;;;;;16.55;14.23;;;10.40;99.90;;;;;;5040302;28;20064;-77
2021/05/01 09:01:41;;;;;;;17.27;14.60;;;10.40;99.90;;;;;;5039782;28;20033;-78
2021/05/01 09:04:10;;;;;;;18.75;14.70;;;10.30;99.90;;;;;;5043714;28;20101;-77
2021/05/01 09:06:37;;;;;;;16.85;14.80;;;10.50;99.90;;;;;;5041371;28;20064;-77
2021/05/01 09:09:08;;;;;;;16.73;14.50;;;10.50;99.90;;;;;;5031433;28;20040;-78
2021/05/01 09:11:38;;;;;;;18.58;13.98;;;10.60;99.90;;;;;;5048397;28;20484;-78
2021/05/01 09:14:26;;;;;;;16.45;13.73;;;10.50;99.90;;;;;;5045529;28;20124;-78
2021/05/01 09:17:04;;;;;;;18.77;14.35;;;10.40;99.90;;;;;;5048622;28;20028;-78
2021/05/01 09:19:37;;;;;;;20.30;14.23;;;10.40;99.90;;;;;;5015086;28;20068;-78
2021/05/01 09:22:14;;;;;;;16.65;13.88;;;10.40;99.90;;;;;;5033918;28;20091;-78
2021/05/01 09:24:43;;;;;;;36.60;20.73;;;10.40;99.90;;;;;;5032998;28;20071;-78
2021/05/01 09:27:15;;;;;;;27.40;18.02;;;10.40;99.90;;;;;;5025495;28;20432;-77
2021/05/01 09:29:41;;;;;;;25.90;17.58;;;10.40;99.90;;;;;;5037508;28;20048;-77
2021/05/01 09:32:23;;;;;;;17.35;14.07;;;10.50;99.90;;;;;;5043228;28;20069;-78
2021/05/01 09:34:51;;;;;;;14.60;12.25;;;10.60;99.90;;;;;;5034190;28;20033;-77
2021/05/01 09:37:19;;;;;;;15.57;13.45;;;10.70;99.90;;;;;;5035576;28;20047;-77
2021/05/01 09:39:50;;;;;;;17.70;13.90;;;10.80;99.90;;;;;;5046078;28;20049;-77
2021/05/01 09:42:18;;;;;;;14.00;11.23;;;10.80;99.90;;;;;;5038874;28;20037;-79
2021/05/01 09:44:45;;;;;;;19.77;13.23;;;10.90;99.90;;;;;;5040992;28;20702;-78
2021/05/01 09:47:17;;;;;;;16.15;13.02;;;11.00;99.90;;;;;;5006176;28;20052;-78
2021/05/01 09:49:46;;;;;;;16.77;12.30;;;11.00;99.90;;;;;;5039468;28;20034;-79
2021/05/01 09:52:15;;;;;;;15.10;12.00;;;11.00;99.90;;;;;;5043319;28;20047;-79
2021/05/01 09:54:46;;;;;;;17.13;12.23;;;11.00;99.90;;;;;;5024983;28;20120;-78
2021/05/01 09:57:20;;;;;;;13.70;11.20;;;11.00;99.90;;;;;;5017237;28;20049;-78
2021/05/01 09:59:51;;;;;;;13.93;11.57;;;11.10;99.90;;;;;;5027711;28;20056;-77
2021/05/01 10:02:35;;;;;;;13.68;11.65;;;11.20;99.90;;;;;;5022999;28;20053;-78
2021/05/01 10:05:09;;;;;;;11.82;10.50;;;11.40;99.90;;;;;;5050575;28;20049;-77
2021/05/01 10:07:39;;;;;;;15.70;11.07;;;11.40;99.90;;;;;;5035313;28;20107;-78
2021/05/01 10:10:05;;;;;;;17.42;12.05;;;11.50;99.90;;;;;;5043054;28;20434;-78
2021/05/01 10:12:40;;;;;;;14.48;11.70;;;11.50;99.90;;;;;;5017223;28;20080;-78
2021/05/01 10:15:24;;;;;;;15.93;10.82;;;11.70;99.90;;;;;;5050064;28;20033;-78
2021/05/01 10:17:51;;;;;;;12.32;10.80;;;11.60;99.90;;;;;;5034049;28;20053;-77
2021/05/01 10:20:18;;;;;;;14.60;11.10;;;11.90;99.90;;;;;;5051790;28;20048;-77
2021/05/01 10:22:50;;;;;;;12.77;10.75;;;11.80;99.90;;;;;;5051782;28;20037;-77
2021/05/01 10:25:18;;;;;;;12.40;11.10;;;11.80;99.90;;;;;;5031596;28;20571;-78
2021/05/01 10:28:03;;;;;;;15.38;10.55;;;12.10;99.90;;;;;;5049703;28;20037;-77
2021/05/01 10:30:39;;;;;;;14.75;10.77;;;12.10;99.90;;;;;;5052576;28;20123;-78
2021/05/01 10:36:13;;;;;;;13.32;11.10;;;12.20;99.90;;;;;;5054985;28;20033;-77
2021/05/01 10:38:39;;;;;;;14.27;11.23;;;12.30;99.90;;;;;;5035071;28;20041;-79
2021/05/01 10:41:08;;;;;;;12.30;10.13;;;12.30;99.90;;;;;;5017002;28;20049;-78
2021/05/01 10:43:39;;;;;;;14.30;9.82;;;12.30;99.90;;;;;;5035366;28;20171;-77
2021/05/01 10:46:08;;;;;;;15.20;9.73;;;12.20;99.90;;;;;;5036427;28;20038;-77
2021/05/01 10:48:35;;;;;;;12.23;9.05;;;12.30;99.90;;;;;;5035049;28;20086;-77
2021/05/01 10:51:06;;;;;;;11.18;8.80;;;12.30;99.90;;;;;;5034093;28;20068;-78
2021/05/01 10:53:32;;;;;;;12.13;9.20;;;12.20;99.90;;;;;;5048712;28;20041;-77
2021/05/01 10:55:58;;;;;;;11.85;8.93;;;12.10;99.90;;;;;;5035042;28;20045;-77
2021/05/01 10:58:34;;;;;;;11.27;8.80;;;12.40;99.90;;;;;;5026753;28;20394;-77
2021/05/01 11:01:00;;;;;;;12.85;8.98;;;12.50;99.90;;;;;;5031882;28;20054;-77
2021/05/01 11:03:28;;;;;;;8.20;5.95;;;12.40;99.90;;;;;;5034932;28;20056;-77
2021/05/01 11:05:56;;;;;;;5.40;4.90;;;12.00;99.90;;;;;;5017810;28;20067;-77
2021/05/01 11:08:57;;;;;;;6.18;5.35;;;11.50;99.90;;;;;;5028759;28;20148;-78
2021/05/01 11:11:30;;;;;;;6.43;4.97;;;11.10;99.90;;;;;;4938055;28;20083;-76
2021/05/01 11:13:59;;;;;;;7.93;5.88;;;10.90;99.90;;;;;;4936620;29;20044;-77
2021/05/01 11:16:36;;;;;;;6.13;5.53;;;10.80;99.90;;;;;;4937063;29;20196;-77
2021/05/01 11:19:06;;;;;;;8.85;5.88;;;10.60;99.90;;;;;;4949019;29;20793;-78
2021/05/01 11:21:32;;;;;;;7.93;6.30;;;10.60;99.90;;;;;;4943290;29;20044;-78
2021/05/01 11:23:59;;;;;;;9.23;6.93;;;10.60;99.90;;;;;;4936140;29;20118;-77
2021/05/01 11:26:27;;;;;;;8.07;6.97;;;10.70;99.90;;;;;;4935579;29;20066;-77
2021/05/01 11:28:52;;;;;;;7.40;6.70;;;10.90;99.90;;;;;;4934563;29;20164;-76
2021/05/01 11:31:19;;;;;;;7.88;6.93;;;10.90;99.90;;;;;;4935732;29;20048;-77
2021/05/01 11:33:47;;;;;;;9.88;6.70;;;10.90;99.90;;;;;;4935376;29;20401;-77
2021/05/01 11:36:17;;;;;;;8.05;6.60;;;10.90;99.90;;;;;;4935478;29;20476;-77
2021/05/01 11:38:43;;;;;;;7.68;6.88;;;10.70;99.90;;;;;;4918994;29;20047;-77
2021/05/01 11:41:12;;;;;;;8.35;6.63;;;10.70;99.90;;;;;;4938312;28;20070;-77
2021/05/01 11:43:40;;;;;;;9.60;6.63;;;10.70;99.90;;;;;;4918988;29;20051;-79
2021/05/01 11:46:16;;;;;;;10.48;7.35;;;10.70;99.90;;;;;;4935323;29;20044;-79
2021/05/01 11:48:52;;;;;;;8.57;6.40;;;10.60;99.90;;;;;;4998118;28;20132;-79
2021/05/01 11:51:29;;;;;;;9.60;7.00;;;10.80;99.90;;;;;;5006971;28;20133;-78
2021/05/01 11:54:21;;;;;;;8.25;6.35;;;10.90;99.90;;;;;;5002163;28;20489;-80
2021/05/01 11:56:54;;;;;;;9.25;7.25;;;11.10;99.90;;;;;;5030157;28;20145;-77
2021/05/01 11:59:21;;;;;;;8.75;7.75;;;11.20;99.90;;;;;;5037341;28;20061;-79
2021/05/01 12:01:49;;;;;;;8.93;7.82;;;11.50;99.90;;;;;;5039605;28;20049;-80
2021/05/01 12:04:19;;;;;;;11.18;8.48;;;11.40;99.90;;;;;;5043882;28;20041;-76
2021/05/01 12:06:53;;;;;;;9.30;8.07;;;11.30;99.90;;;;;;5023759;28;20081;-78
2021/05/01 12:09:28;;;;;;;10.82;8.05;;;11.60;99.90;;;;;;5042549;28;20044;-77
2021/05/01 12:11:57;;;;;;;10.68;7.63;;;11.50;99.90;;;;;;5024189;28;20056;-77
2021/05/01 12:14:27;;;;;;;9.23;7.93;;;11.70;99.90;;;;;;5038477;28;20481;-77
2021/05/01 12:17:15;;;;;;;11.43;8.48;;;11.90;99.90;;;;;;5045023;28;20041;-77
2021/05/01 12:19:46;;;;;;;9.20;8.30;;;12.00;99.90;;;;;;5032582;28;20123;-77
2021/05/01 12:22:41;;;;;;;10.50;8.75;;;12.10;99.90;;;;;;5033559;28;20064;-77
2021/05/01 12:25:34;;;;;;;10.05;8.90;;;12.10;99.90;;;;;;4972037;28;20117;-77
2021/05/01 12:28:02;;;;;;;13.90;8.57;;;12.30;99.90;;;;;;4980010;28;20045;-77
2021/05/01 12:30:49;;;;;;;10.07;8.07;;;12.40;99.90;;;;;;4991832;28;20046;-77
2021/05/01 12:33:26;;;;;;;10.48;7.85;;;12.90;99.90;;;;;;4972288;28;20137;-77
2021/05/01 12:35:59;;;;;;;9.68;7.93;;;13.10;99.90;;;;;;4972496;28;20054;-77
2021/05/01 12:38:26;;;;;;;13.18;8.18;;;13.10;99.90;;;;;;4960244;28;20226;-78
2021/05/01 12:41:07;;;;;;;10.55;8.27;;;12.80;99.90;;;;;;4991785;28;20121;-77
2021/05/01 12:43:33;;;;;;;11.80;7.88;;;13.10;99.90;;;;;;4975271;28;20062;-77
2021/05/01 12:46:01;;;;;;;9.85;7.95;;;13.50;99.90;;;;;;4991216;28;20065;-78
2021/05/01 12:48:56;;;;;;;10.45;7.57;;;13.50;99.00;;;;;;4975113;28;20429;-77